createdAt,value
2022-12-19T00:01:54.611Z,21.40
2022-12-19T00:04:21.866Z,20.70
2022-12-19T00:06:48.916Z,22.58
2022-12-19T00:09:16.025Z,20.98
2022-12-19T00:11:43.129Z,18.83
2022-12-19T00:14:11.797Z,22.00
2022-12-19T00:16:39.089Z,20.95
2022-12-19T00:19:06.732Z,18.83
2022-12-19T00:21:35.475Z,21.60
2022-12-19T00:24:09.822Z,20.55
2022-12-19T00:26:50.173Z,18.27
2022-12-19T00:29:17.820Z,21.52
2022-12-19T00:31:45.968Z,20.63
2022-12-19T00:34:15.054Z,20.58
2022-12-19T00:36:42.394Z,17.25
2022-12-19T00:39:10.602Z,22.08
2022-12-19T00:41:41.897Z,21.48
2022-12-19T00:44:14.419Z,18.93
2022-12-19T00:46:41.899Z,19.95
2022-12-19T00:49:09.243Z,22.05
2022-12-19T00:51:37.261Z,22.63
2022-12-19T00:54:06.740Z,21.83
2022-12-19T00:56:37.740Z,20.20
2022-12-19T00:59:07.405Z,19.10
2022-12-19T01:01:38.344Z,21.75
2022-12-19T01:06:54.219Z,20.25
2022-12-19T01:09:25.228Z,19.10
2022-12-19T01:12:10.795Z,20.77
2022-12-19T01:14:37.809Z,22.90
2022-12-19T01:17:04.805Z,23.08
2022-12-19T01:19:31.875Z,23.60
2022-12-19T01:21:58.830Z,21.63
2022-12-19T01:24:26.254Z,23.45
2022-12-19T01:26:53.260Z,22.73
2022-12-19T01:29:20.288Z,20.83
2022-12-19T01:31:48.252Z,22.13
2022-12-19T01:34:15.281Z,21.73
2022-12-19T01:36:42.314Z,21.38
2022-12-19T01:39:09.340Z,24.38
2022-12-19T01:41:37.377Z,21.77
2022-12-19T01:44:07.342Z,22.08
2022-12-19T01:46:38.844Z,20.27
2022-12-19T01:49:13.682Z,23.50
2022-12-19T01:51:45.908Z,22.77
2022-12-19T01:54:21.150Z,22.55
2022-12-19T01:56:52.124Z,21.63
2022-12-19T01:59:41.566Z,22.52
2022-12-19T02:02:17.544Z,22.83
2022-12-19T02:04:46.422Z,21.33
2022-12-19T02:07:16.589Z,21.98
2022-12-19T02:09:53.678Z,22.77
2022-12-19T02:12:34.000Z,21.92
2022-12-19T02:15:03.529Z,21.33
2022-12-19T02:17:38.717Z,23.03
2022-12-19T02:20:14.917Z,21.65
2022-12-19T02:22:53.915Z,23.52
2022-12-19T02:25:56.578Z,22.60
2022-12-19T02:28:45.713Z,25.25
2022-12-19T02:31:33.252Z,23.60
2022-12-19T02:34:17.325Z,26.17
2022-12-19T02:37:07.879Z,24.55
2022-12-19T02:40:05.783Z,23.45
2022-12-19T02:42:37.808Z,22.48
2022-12-19T02:45:08.018Z,23.13
2022-12-19T02:47:37.703Z,23.63
2022-12-19T02:50:05.885Z,20.42
2022-12-19T02:52:33.043Z,23.35
2022-12-19T02:55:07.314Z,23.35
2022-12-19T03:00:19.000Z,22.55
2022-12-19T03:03:00.239Z,22.88
2022-12-19T03:05:44.066Z,24.02
2022-12-19T03:08:37.344Z,24.15
2022-12-19T03:13:44.775Z,23.17
2022-12-19T03:16:13.445Z,23.63
2022-12-19T03:18:41.118Z,25.65
2022-12-19T03:21:49.426Z,25.75
2022-12-19T03:24:17.958Z,25.27
2022-12-19T03:26:56.524Z,26.17
2022-12-19T03:29:31.825Z,25.20
2022-12-19T03:32:03.655Z,22.58
2022-12-19T03:34:41.517Z,24.58
2022-12-19T03:37:14.616Z,22.85
2022-12-19T03:39:46.061Z,24.33
2022-12-19T03:42:33.605Z,24.20
2022-12-19T03:45:03.446Z,22.50
2022-12-19T03:47:49.421Z,20.33
2022-12-19T03:50:16.743Z,19.73
2022-12-19T03:53:15.761Z,25.23
2022-12-19T03:55:53.726Z,24.38
2022-12-19T03:58:30.285Z,21.10
2022-12-19T04:00:58.349Z,23.98
2022-12-19T04:03:27.437Z,24.65
2022-12-19T04:05:55.938Z,23.67
2022-12-19T04:08:24.401Z,24.58
2022-12-19T04:10:56.195Z,19.90
2022-12-19T04:13:40.647Z,16.60
2022-12-19T04:16:07.710Z,21.27
2022-12-19T04:18:36.538Z,23.08
2022-12-19T04:21:17.467Z,24.33
2022-12-19T04:23:53.146Z,20.77
2022-12-19T04:26:21.461Z,24.45
2022-12-19T04:28:56.435Z,20.63
2022-12-19T04:31:23.892Z,22.08
2022-12-19T04:33:50.965Z,21.00
2022-12-19T04:36:18.134Z,22.73
2022-12-19T04:38:45.152Z,22.77
2022-12-19T04:41:12.586Z,24.90
2022-12-19T04:43:39.609Z,22.42
2022-12-19T04:46:06.775Z,22.33
2022-12-19T04:48:36.215Z,24.00
2022-12-19T04:51:03.928Z,21.73
2022-12-19T04:53:32.104Z,25.25
2022-12-19T04:56:04.438Z,26.90
2022-12-19T04:58:31.957Z,29.02
2022-12-19T05:01:07.227Z,28.02
2022-12-19T05:03:35.120Z,25.10
2022-12-19T05:06:11.394Z,30.33
2022-12-19T05:08:39.844Z,27.48
2022-12-19T05:11:07.948Z,27.20
2022-12-19T05:13:35.394Z,22.73
2022-12-19T05:16:08.601Z,22.00
2022-12-19T05:18:37.413Z,22.40
2022-12-19T05:21:05.152Z,22.17
2022-12-19T05:23:32.327Z,21.58
2022-12-19T05:26:00.321Z,24.63
2022-12-19T05:28:27.714Z,23.02
2022-12-19T05:31:08.458Z,21.17
2022-12-19T05:33:36.322Z,21.20
2022-12-19T05:36:04.269Z,17.13
2022-12-19T05:38:32.422Z,17.75
2022-12-19T05:40:59.760Z,19.63
2022-12-19T05:43:27.660Z,17.85
2022-12-19T05:45:54.801Z,17.67
2022-12-19T05:48:21.825Z,14.30
2022-12-19T05:50:50.273Z,19.55
2022-12-19T05:53:20.683Z,16.13
2022-12-19T05:55:51.633Z,16.20
2022-12-19T05:58:19.889Z,18.73
2022-12-19T06:00:47.052Z,19.60
2022-12-19T06:03:14.204Z,16.80
2022-12-19T06:05:41.360Z,17.60
2022-12-19T06:08:08.945Z,19.60
2022-12-19T06:10:35.905Z,9.90
2022-12-19T06:13:03.029Z,16.85
2022-12-19T06:15:30.275Z,18.25
2022-12-19T06:17:57.928Z,19.70
2022-12-19T06:20:25.000Z,17.02
2022-12-19T06:22:52.114Z,15.10
2022-12-19T06:25:19.159Z,18.52
2022-12-19T06:27:46.137Z,18.25
2022-12-19T06:30:13.565Z,17.40
2022-12-19T06:32:41.269Z,18.27
2022-12-19T06:35:08.675Z,16.17
2022-12-19T06:37:38.922Z,14.98
2022-12-19T06:40:07.170Z,15.05
2022-12-19T06:42:34.216Z,16.92
2022-12-19T06:45:01.190Z,10.02
2022-12-19T06:47:28.267Z,13.32
2022-12-19T06:49:55.430Z,15.57
2022-12-19T06:52:22.666Z,16.58
2022-12-19T06:54:49.720Z,14.25
2022-12-19T06:57:16.821Z,12.32
2022-12-19T06:59:43.843Z,13.02
2022-12-19T07:02:34.585Z,10.43
2022-12-19T07:05:05.914Z,15.35
2022-12-19T07:07:33.435Z,9.40
2022-12-19T07:10:05.033Z,11.48
2022-12-19T07:12:32.331Z,11.43
2022-12-19T07:14:59.804Z,14.20
2022-12-19T07:17:29.314Z,11.55
2022-12-19T07:19:58.116Z,15.55
2022-12-19T07:22:29.664Z,10.20
2022-12-19T07:24:57.915Z,14.40
2022-12-19T07:27:29.692Z,13.45
2022-12-19T07:30:04.043Z,13.18
2022-12-19T07:32:31.441Z,11.30
2022-12-19T07:34:58.962Z,15.13
2022-12-19T07:37:29.572Z,15.75
2022-12-19T07:39:57.036Z,14.32
2022-12-19T07:42:27.037Z,13.45
2022-12-19T07:44:58.006Z,15.35
2022-12-19T07:47:27.642Z,13.82
2022-12-19T07:49:54.939Z,12.75
2022-12-19T07:52:22.432Z,11.68
2022-12-19T07:54:49.908Z,13.57
2022-12-19T07:57:21.346Z,12.38
2022-12-19T07:59:48.517Z,14.35
2022-12-19T08:02:16.080Z,16.33
2022-12-19T08:04:43.508Z,12.98
2022-12-19T08:07:10.856Z,15.07
2022-12-19T08:09:37.862Z,13.75
2022-12-19T08:12:05.138Z,14.98
2022-12-19T08:14:32.366Z,12.82
2022-12-19T08:19:47.479Z,16.67
2022-12-19T08:22:16.202Z,10.82
2022-12-19T08:24:43.702Z,13.40
2022-12-19T08:27:13.578Z,12.48
2022-12-19T08:29:40.864Z,10.05
2022-12-19T08:32:08.437Z,7.95
2022-12-19T08:34:35.937Z,9.30
2022-12-19T08:37:03.331Z,12.23
2022-12-19T08:39:32.095Z,13.07
2022-12-19T08:41:59.702Z,6.78
2022-12-19T08:44:27.575Z,10.45
2022-12-19T08:46:55.159Z,10.27
2022-12-19T08:49:22.522Z,11.43
2022-12-19T08:51:50.013Z,10.82
2022-12-19T08:54:17.645Z,6.85
2022-12-19T08:56:46.337Z,9.25
2022-12-19T08:59:18.515Z,11.45
2022-12-19T09:01:58.626Z,6.60
2022-12-19T09:05:54.540Z,6.75
2022-12-19T09:07:16.378Z,12.77
2022-12-19T09:09:44.792Z,9.68
2022-12-19T09:12:13.674Z,8.90
2022-12-19T09:14:41.094Z,6.28
2022-12-19T09:17:09.198Z,9.10
2022-12-19T09:19:36.659Z,6.85
2022-12-19T09:22:07.827Z,7.32
2022-12-19T09:24:35.206Z,7.40
2022-12-19T09:27:04.396Z,9.32
2022-12-19T09:29:35.320Z,10.20
2022-12-19T09:32:03.195Z,6.90
2022-12-19T09:34:38.300Z,11.82
2022-12-19T09:37:17.026Z,9.95
2022-12-19T09:42:56.554Z,6.90
2022-12-19T09:46:01.254Z,7.78
2022-12-19T09:48:29.067Z,9.38
2022-12-19T09:51:10.028Z,10.63
2022-12-19T09:53:53.774Z,9.00
2022-12-19T09:56:25.100Z,8.80
2022-12-19T09:59:02.540Z,8.63
2022-12-19T10:01:59.787Z,12.68
2022-12-19T10:07:35.435Z,8.15
2022-12-19T10:12:35.412Z,6.80
2022-12-19T10:13:16.430Z,6.40
2022-12-19T10:16:05.013Z,8.25
2022-12-19T10:18:51.019Z,7.68
2022-12-19T10:25:00.736Z,7.95
2022-12-19T10:28:11.153Z,11.65
2022-12-19T10:31:20.966Z,12.88
2022-12-19T10:34:30.958Z,10.10
2022-12-19T10:44:24.047Z,9.88
2022-12-19T10:47:11.646Z,5.70
2022-12-19T11:30:41.631Z,9.80
2022-12-19T11:30:48.000Z,14.30
2022-12-19T11:33:14.887Z,8.10
2022-12-19T11:38:54.294Z,14.35
2022-12-19T11:41:49.900Z,11.20
2022-12-19T11:44:36.536Z,10.52
2022-12-19T11:47:07.147Z,9.10
2022-12-19T11:49:42.344Z,7.30
2022-12-19T11:58:32.030Z,7.22
2022-12-19T12:01:45.226Z,8.80
2022-12-19T12:04:41.729Z,8.23
2022-12-19T12:09:19.532Z,9.75
2022-12-19T12:17:12.643Z,7.72
2022-12-19T12:22:08.674Z,7.32
2022-12-19T12:31:05.267Z,10.07
2022-12-19T12:31:14.255Z,6.45
2022-12-19T12:35:50.038Z,8.82
2022-12-19T12:38:37.411Z,8.63
2022-12-19T12:42:03.815Z,11.55
2022-12-19T12:56:48.601Z,6.15
2022-12-19T13:00:01.395Z,6.32
2022-12-19T14:39:22.027Z,9.63
2022-12-19T14:52:51.480Z,15.03
2022-12-19T15:05:06.450Z,28.85
2022-12-19T15:11:50.647Z,19.55
2022-12-19T15:17:21.580Z,14.02
2022-12-19T15:23:23.555Z,10.98
2022-12-19T15:26:16.998Z,7.53
2022-12-19T15:33:06.306Z,32.47
2022-12-19T15:46:06.074Z,18.95
2022-12-19T15:48:36.785Z,18.38
2022-12-19T15:51:03.955Z,28.30
2022-12-19T15:53:40.794Z,13.60
2022-12-19T15:56:31.919Z,12.70
2022-12-19T15:59:00.923Z,12.77
2022-12-19T16:01:28.544Z,10.30
2022-12-19T16:03:57.278Z,11.50
2022-12-19T16:06:24.461Z,10.50
2022-12-19T16:08:51.745Z,12.02
2022-12-19T16:11:24.515Z,12.60
2022-12-19T16:13:58.799Z,11.65
2022-12-19T16:16:25.878Z,12.48
2022-12-19T16:18:52.968Z,11.73
2022-12-19T16:21:27.467Z,11.90
2022-12-19T16:23:58.410Z,11.32
2022-12-19T16:26:35.892Z,14.38
2022-12-19T16:29:03.832Z,12.95
2022-12-19T16:31:30.940Z,12.45
2022-12-19T16:33:58.064Z,14.55
2022-12-19T16:36:25.087Z,16.65
2022-12-19T16:38:52.089Z,33.30
2022-12-19T16:41:23.551Z,25.73
2022-12-19T16:43:51.557Z,32.35
2022-12-19T16:46:22.183Z,11.57
2022-12-19T16:48:50.006Z,17.95
2022-12-19T16:51:23.173Z,38.65
2022-12-19T16:53:52.649Z,21.85
2022-12-19T16:56:32.826Z,23.90
2022-12-19T16:59:06.105Z,19.33
2022-12-19T17:01:33.197Z,14.65
2022-12-19T17:04:00.402Z,10.82
2022-12-19T17:06:27.448Z,12.85
2022-12-19T17:08:54.421Z,14.75
2022-12-19T17:11:24.443Z,13.30
2022-12-19T17:13:57.229Z,14.25
2022-12-19T17:18:51.235Z,11.27
2022-12-19T17:21:21.492Z,11.73
2022-12-19T17:23:50.037Z,13.48
2022-12-19T17:26:18.241Z,14.77
2022-12-19T17:28:48.373Z,13.23
2022-12-19T17:31:21.718Z,14.38
2022-12-19T17:33:49.206Z,14.20
2022-12-19T17:36:23.092Z,14.95
2022-12-19T17:38:52.032Z,14.10
2022-12-19T17:41:19.098Z,14.57
2022-12-19T17:43:46.206Z,12.88
2022-12-19T17:46:21.243Z,17.13
2022-12-19T17:48:51.833Z,15.60
2022-12-19T17:51:20.463Z,15.70
2022-12-19T17:53:48.072Z,14.80
2022-12-19T17:56:17.062Z,17.83
2022-12-19T17:58:44.436Z,16.88
2022-12-19T18:01:23.593Z,16.50
2022-12-19T18:03:53.015Z,13.93
2022-12-19T18:06:20.979Z,14.73
2022-12-19T18:08:49.631Z,16.58
2022-12-19T18:11:23.287Z,14.98
2022-12-19T18:13:50.762Z,11.48
2022-12-19T18:16:21.170Z,15.25
2022-12-19T18:18:48.612Z,12.75
2022-12-19T18:21:19.691Z,12.13
2022-12-19T18:23:46.776Z,13.43
2022-12-19T18:26:14.501Z,14.85
2022-12-19T18:28:42.628Z,13.50
2022-12-19T18:31:25.824Z,11.55
2022-12-19T18:33:54.913Z,12.50
2022-12-19T18:36:27.664Z,12.60
2022-12-19T18:38:55.894Z,14.23
2022-12-19T18:41:23.431Z,14.07
2022-12-19T18:43:51.119Z,14.23
2022-12-19T18:46:29.148Z,14.90
2022-12-19T18:48:57.601Z,15.93
2022-12-19T18:51:25.370Z,14.60
2022-12-19T18:53:53.051Z,13.48
2022-12-19T18:56:20.322Z,13.57
2022-12-19T18:58:48.762Z,17.60
2022-12-19T19:01:20.690Z,15.63
2022-12-19T19:03:57.091Z,13.23
2022-12-19T19:06:27.689Z,12.77
2022-12-19T19:08:57.170Z,16.10
2022-12-19T19:11:42.814Z,8.80
2022-12-19T19:14:11.434Z,13.55
2022-12-19T19:16:40.035Z,14.13
2022-12-19T19:19:10.911Z,8.95
2022-12-19T19:21:38.987Z,9.30
2022-12-19T19:24:22.925Z,12.75
2022-12-19T19:26:50.277Z,12.13
2022-12-19T19:29:19.883Z,14.80
2022-12-19T19:31:49.036Z,12.63
2022-12-19T19:34:21.875Z,11.60
2022-12-19T19:39:23.240Z,4.70
2022-12-19T19:41:51.389Z,13.13
2022-12-19T19:44:18.647Z,13.77
2022-12-19T19:46:47.066Z,18.10
2022-12-19T19:49:14.385Z,15.43
2022-12-19T19:51:43.257Z,8.32
2022-12-19T19:54:10.612Z,16.77
2022-12-19T19:56:37.798Z,13.85
2022-12-19T19:59:05.556Z,13.65
2022-12-19T20:01:34.745Z,15.63
2022-12-19T20:04:02.695Z,10.32
2022-12-19T20:06:30.179Z,15.55
2022-12-19T20:08:57.608Z,16.23
2022-12-19T20:11:25.221Z,13.57
2022-12-19T20:13:52.484Z,13.35
2022-12-19T20:16:20.430Z,13.68
2022-12-19T20:18:50.050Z,12.50
2022-12-19T20:21:18.501Z,20.67
2022-12-19T20:23:45.953Z,16.73
2022-12-19T20:26:14.260Z,15.50
2022-12-19T20:28:48.544Z,16.30
2022-12-19T20:31:23.692Z,18.50
2022-12-19T20:33:54.267Z,17.17
2022-12-19T20:36:22.769Z,16.13
2022-12-19T20:38:52.002Z,17.35
2022-12-19T20:41:19.577Z,17.02
2022-12-19T20:43:48.189Z,16.50
2022-12-19T20:46:18.662Z,17.00
2022-12-19T20:48:46.911Z,16.60
2022-12-19T20:51:15.648Z,14.07
2022-12-19T20:53:43.753Z,15.02
2022-12-19T20:56:17.274Z,16.48
2022-12-19T20:58:44.965Z,16.13
2022-12-19T21:01:20.437Z,15.00
2022-12-19T21:03:48.838Z,12.57
2022-12-19T21:06:17.563Z,13.88
2022-12-19T21:08:45.546Z,7.80
2022-12-19T21:11:13.299Z,13.98
2022-12-19T21:13:41.183Z,12.68
2022-12-19T21:16:11.605Z,13.00
2022-12-19T21:18:40.215Z,15.52
2022-12-19T21:21:09.014Z,16.00
2022-12-19T21:23:36.376Z,17.15
2022-12-19T21:26:04.863Z,16.05
2022-12-19T21:28:33.056Z,15.90
2022-12-19T21:31:02.878Z,14.55
2022-12-19T21:33:30.296Z,15.10
2022-12-19T21:35:57.427Z,18.08
2022-12-19T21:38:24.670Z,17.67
2022-12-19T21:40:51.719Z,17.10
2022-12-19T21:43:18.806Z,16.00
2022-12-19T21:45:45.930Z,15.10
2022-12-19T21:48:13.068Z,16.55
2022-12-19T21:50:40.129Z,17.88
2022-12-19T21:53:07.138Z,15.32
2022-12-19T21:55:34.212Z,16.67
2022-12-19T21:58:01.257Z,14.30
2022-12-19T22:00:28.521Z,13.20
2022-12-19T22:03:13.103Z,17.60
2022-12-19T22:05:43.730Z,14.93
2022-12-19T22:08:11.640Z,18.83
2022-12-19T22:10:49.396Z,17.40
2022-12-19T22:13:17.872Z,17.83
2022-12-19T22:15:50.711Z,18.35
2022-12-19T22:18:18.566Z,15.82
2022-12-19T22:20:46.029Z,17.98
2022-12-19T22:23:13.751Z,14.90
2022-12-19T22:25:41.282Z,17.20
2022-12-19T22:28:08.512Z,16.65
2022-12-19T22:30:36.842Z,17.80
2022-12-19T22:33:04.817Z,16.90
2022-12-19T22:35:34.443Z,17.60
2022-12-19T22:38:01.559Z,12.23
2022-12-19T22:40:28.630Z,17.30
2022-12-19T22:42:55.641Z,18.63
2022-12-19T22:45:22.741Z,16.80
2022-12-19T22:47:49.720Z,13.90
2022-12-19T22:50:16.839Z,12.93
2022-12-19T22:52:43.892Z,18.48
2022-12-19T22:55:11.181Z,17.08
2022-12-19T22:57:38.210Z,17.50
2022-12-19T23:00:09.835Z,16.50
2022-12-19T23:02:42.563Z,15.15
2022-12-19T23:07:37.248Z,15.13
2022-12-19T23:10:04.644Z,17.77
2022-12-19T23:12:31.717Z,16.42
2022-12-19T23:14:58.832Z,15.07
2022-12-19T23:17:25.869Z,15.13
2022-12-19T23:19:52.861Z,16.55
2022-12-19T23:22:20.023Z,15.10
2022-12-19T23:24:47.225Z,15.07
2022-12-19T23:27:14.367Z,15.07
2022-12-19T23:29:42.846Z,18.33
2022-12-19T23:32:10.813Z,14.57
2022-12-19T23:34:37.958Z,15.10
2022-12-19T23:37:12.953Z,14.57
2022-12-19T23:39:40.229Z,17.92
2022-12-19T23:42:07.333Z,18.10
2022-12-19T23:44:34.530Z,15.95
2022-12-19T23:47:03.776Z,14.23
2022-12-19T23:49:32.329Z,17.92
2022-12-19T23:51:59.561Z,17.73
2022-12-19T23:54:26.821Z,14.05
2022-12-19T23:56:53.880Z,15.30
2022-12-19T23:59:21.164Z,15.98
